Juniata, Nebraska
Current Conditions -  °F | °C
As of 6:01 AM on Thursday 29 Jan 2015 (Local Time) from KHSI Reporting Station
Overcast Overcast  
Wind Chill: 29°   Ceiling: 3200
Heat Index: 38°   Visibility: 10mi
Dew Point: 27°   Wind: 17mph
Humidity: 65%   Direction: 330°NNW
Pressure: 30.28"   Gusts: NA
Location:  40.59°N, 98.51°W
Report Text: KHSI 291201Z AUTO 33015KT 10SM OVC032 03/M03 A3028 RMK AO2 T00331028 $
Loading
Personal Weather Stations






























Interactive Weather Map New forecast layout! Learn more

10-Day Weather Forecast

Advertisements
Track Severe Weather on mobile